KUKT/UKT METAR and TAF weather

Enter ICAO airport designator
Station Type Date Time Source
KUKT METAR 2018/12/15 22:35 UTC NOAA

KUKT 152235Z AUTO 03005KT 10SM SCT026 BKN032 09/08 A3005 RMK A01


Station Type Date Time Source
KUKT Decoded METAR 2018/12/15 22:35 UTC NOAA

Quakertown, Quakertown Airport, PA, United States (KUKT) 40-26-06N 075-22-54W
Dec 15, 2018 - 05:35 PM EST / 2018.12.15 2235 UTC
Wind: from the NNE (030 degrees) at 6 MPH (5 KT):0
Visibility: 10 mile(s):0
Sky conditions: mostly cloudy
Temperature: 48 F (9 C)
Dew Point: 46 F (8 C)
Relative Humidity: 93%
Pressure (altimeter): 30.05 in. Hg (1017 hPa)
ob: KUKT 152235Z AUTO 03005KT 10SM SCT026 BKN032 09/08 A3005 RMK A01
cycle: 22

Station Type Date Time Source
KUKT TAF UTC NOAA

Error!


Example: see airport list